createdAt,value
2022-08-14T00:05:00.185Z,2.40
2022-08-14T00:10:49.977Z,2.78
2022-08-14T00:15:43.475Z,2.83
2022-08-14T00:20:46.495Z,2.50
2022-08-14T00:25:53.683Z,2.78
2022-08-14T00:31:01.143Z,2.30
2022-08-14T00:36:39.143Z,2.60
2022-08-14T00:41:31.508Z,2.25
2022-08-14T00:46:37.333Z,2.10
2022-08-14T00:51:39.626Z,2.53
2022-08-14T00:56:42.974Z,2.70
2022-08-14T01:01:46.064Z,2.28
2022-08-14T01:06:55.343Z,2.17
2022-08-14T01:12:03.231Z,2.60
2022-08-14T01:17:05.564Z,2.28
2022-08-14T01:22:12.386Z,2.70
2022-08-14T01:27:18.578Z,2.38
2022-08-14T01:32:23.073Z,2.63
2022-08-14T01:37:25.647Z,2.33
2022-08-14T01:42:31.395Z,2.83
2022-08-14T01:47:37.283Z,2.90
2022-08-14T01:52:59.224Z,2.58
2022-08-14T01:58:20.079Z,2.40
2022-08-14T02:03:30.880Z,2.92
2022-08-14T02:08:35.095Z,2.55
2022-08-14T02:13:38.132Z,3.15
2022-08-14T02:18:40.024Z,2.40
2022-08-14T02:23:42.983Z,2.45
2022-08-14T02:28:58.495Z,2.42
2022-08-14T02:44:31.943Z,2.67
2022-08-14T02:49:42.829Z,2.60
2022-08-14T02:54:45.829Z,2.80
2022-08-14T02:59:49.908Z,2.90
2022-08-14T03:04:54.397Z,3.28
2022-08-14T03:10:27.666Z,3.42
2022-08-14T03:15:19.239Z,2.83
2022-08-14T03:20:22.851Z,3.47
2022-08-14T03:25:25.162Z,3.95
2022-08-14T03:30:40.020Z,3.50
2022-08-14T03:36:05.464Z,3.25
2022-08-14T03:41:06.769Z,4.10
2022-08-14T03:46:39.200Z,3.13
2022-08-14T03:51:34.006Z,3.60
2022-08-14T03:56:44.451Z,3.30
2022-08-14T04:01:58.244Z,2.88
2022-08-14T04:07:04.105Z,4.03
2022-08-14T04:12:07.627Z,4.35
2022-08-14T04:17:11.248Z,4.00
2022-08-14T04:22:14.913Z,3.75
2022-08-14T04:27:18.556Z,4.00
2022-08-14T04:33:00.714Z,3.60
2022-08-14T04:38:07.690Z,3.85
2022-08-14T04:43:39.888Z,3.70
2022-08-14T04:48:43.815Z,3.92
2022-08-14T04:53:54.434Z,3.92
2022-08-14T04:59:01.599Z,4.10
2022-08-14T05:04:04.606Z,4.13
2022-08-14T05:09:14.375Z,4.30
2022-08-14T05:14:45.423Z,4.72
2022-08-14T05:19:45.039Z,4.53
2022-08-14T05:25:04.223Z,4.22
2022-08-14T05:30:07.849Z,4.45
2022-08-14T05:35:11.765Z,4.13
2022-08-14T05:40:16.425Z,4.40
2022-08-14T05:45:20.538Z,4.30
2022-08-14T05:50:22.303Z,4.10
2022-08-14T05:55:25.670Z,4.28
2022-08-14T06:00:38.544Z,4.28
2022-08-14T06:05:41.507Z,4.10
2022-08-14T06:10:44.371Z,4.03
2022-08-14T06:15:47.713Z,4.15
2022-08-14T06:20:49.660Z,4.00
2022-08-14T06:25:52.672Z,4.32
2022-08-14T06:30:55.923Z,4.35
2022-08-14T06:35:58.264Z,3.75
2022-08-14T06:41:00.786Z,4.45
2022-08-14T06:46:03.984Z,4.18
2022-08-14T06:51:05.929Z,4.05
2022-08-14T06:56:07.828Z,3.50
2022-08-14T07:01:28.454Z,3.85
2022-08-14T07:06:46.746Z,3.20
2022-08-14T07:11:49.750Z,3.75
2022-08-14T07:16:52.716Z,4.50
2022-08-14T07:21:54.536Z,3.70
2022-08-14T07:26:56.217Z,3.97
2022-08-14T07:31:57.990Z,3.63
2022-08-14T07:37:01.113Z,3.92
2022-08-14T07:42:03.350Z,3.95
2022-08-14T07:47:05.468Z,4.00
2022-08-14T07:52:07.406Z,3.60
2022-08-14T07:57:12.060Z,3.75
2022-08-14T08:02:20.229Z,3.40
2022-08-14T08:07:31.097Z,3.65
2022-08-14T08:12:40.517Z,3.58
2022-08-14T08:17:53.403Z,3.50
2022-08-14T08:23:06.520Z,3.65
2022-08-14T08:28:27.647Z,3.63
2022-08-14T08:33:37.038Z,4.30
2022-08-14T08:39:15.043Z,3.05
2022-08-14T08:44:05.522Z,3.58
2022-08-14T08:49:07.602Z,3.65
2022-08-14T08:54:18.461Z,3.30
2022-08-14T08:59:31.404Z,3.35
2022-08-14T09:04:45.328Z,2.88
2022-08-14T09:09:58.558Z,3.45
2022-08-14T09:15:09.005Z,2.70
2022-08-14T09:20:26.462Z,3.05
2022-08-14T09:26:00.512Z,2.45
2022-08-14T09:30:57.768Z,3.03
2022-08-14T09:36:18.536Z,3.00
2022-08-14T09:42:21.827Z,3.22
2022-08-14T09:47:51.820Z,2.85
2022-08-14T09:52:58.864Z,2.47
2022-08-14T09:58:19.634Z,2.55
2022-08-14T10:03:33.109Z,3.10
2022-08-14T10:08:54.561Z,3.00
2022-08-14T10:14:29.036Z,2.47
2022-08-14T10:19:48.709Z,2.13
2022-08-14T10:24:51.521Z,2.40
2022-08-14T10:30:01.524Z,2.30
2022-08-14T10:35:13.631Z,2.10
2022-08-14T10:40:43.636Z,1.67
2022-08-14T10:45:59.762Z,1.90
2022-08-14T10:51:25.394Z,1.50
2022-08-14T10:56:34.118Z,1.40
2022-08-14T11:01:41.351Z,1.20
2022-08-14T11:06:55.257Z,1.80
2022-08-14T11:12:39.975Z,1.25
2022-08-14T11:17:21.811Z,1.90
2022-08-14T11:22:55.656Z,1.50
2022-08-14T11:27:53.672Z,1.20
2022-08-14T11:32:58.349Z,1.40
2022-08-14T11:38:05.163Z,1.10
2022-08-14T11:43:09.027Z,1.13
2022-08-14T11:49:02.562Z,1.05
2022-08-14T11:53:43.584Z,1.63
2022-08-14T11:58:53.221Z,1.27
2022-08-14T12:03:58.887Z,1.10
2022-08-14T12:09:08.930Z,1.33
2022-08-14T12:14:30.551Z,1.20
2022-08-14T12:19:51.203Z,1.25
2022-08-14T12:24:55.409Z,1.10
2022-08-14T12:29:57.441Z,0.80
2022-08-14T12:34:59.383Z,1.30
2022-08-14T12:40:11.880Z,0.90
2022-08-14T12:45:17.217Z,1.00
2022-08-14T12:50:20.201Z,1.00
2022-08-14T12:55:22.299Z,0.80
2022-08-14T13:00:25.371Z,0.50
2022-08-14T13:05:31.952Z,0.90
2022-08-14T13:10:47.101Z,0.80
2022-08-14T13:15:56.218Z,0.70
2022-08-14T13:21:02.282Z,0.80
2022-08-14T13:26:05.061Z,0.70
2022-08-14T13:31:11.908Z,0.90
2022-08-14T13:36:24.406Z,0.80
2022-08-14T13:41:37.783Z,0.80
2022-08-14T13:46:39.721Z,0.85
2022-08-14T13:51:50.405Z,0.73
2022-08-14T13:56:56.202Z,0.88
2022-08-14T14:02:04.464Z,0.60
2022-08-14T14:07:14.063Z,0.70
2022-08-14T14:12:37.690Z,0.80
2022-08-14T14:17:40.666Z,1.00
2022-08-14T14:23:01.584Z,1.02
2022-08-14T14:28:05.210Z,0.70
2022-08-14T14:33:42.419Z,0.90
2022-08-14T14:38:34.427Z,0.90
2022-08-14T14:43:45.166Z,0.80
2022-08-14T14:48:54.547Z,1.13
2022-08-14T14:53:57.685Z,0.90
2022-08-14T14:59:00.621Z,0.97
2022-08-14T15:04:07.749Z,1.08
2022-08-14T15:09:10.001Z,1.10
2022-08-14T15:14:55.275Z,1.10
2022-08-14T15:19:56.158Z,1.10
2022-08-14T15:24:59.062Z,1.10
2022-08-14T15:30:01.139Z,0.93
2022-08-14T15:35:04.983Z,1.13
2022-08-14T15:40:16.475Z,1.10
2022-08-14T15:45:24.347Z,1.13
2022-08-14T15:50:26.434Z,0.93
2022-08-14T15:55:30.350Z,0.90
2022-08-14T16:00:52.942Z,1.45
2022-08-14T16:05:55.771Z,0.95
2022-08-14T16:16:34.434Z,0.80
2022-08-14T16:21:25.206Z,0.95
2022-08-14T16:26:29.886Z,0.90
2022-08-14T16:31:39.908Z,0.88
2022-08-14T16:36:50.961Z,0.80
2022-08-14T16:41:53.661Z,0.90
2022-08-14T16:46:57.556Z,0.83
2022-08-14T16:52:02.147Z,1.10
2022-08-14T16:57:22.492Z,1.08
2022-08-14T17:02:39.222Z,1.08
2022-08-14T17:07:44.773Z,1.35
2022-08-14T17:12:48.816Z,0.95
2022-08-14T17:17:57.820Z,1.20
2022-08-14T17:23:00.340Z,1.00
2022-08-14T17:28:52.305Z,1.17
2022-08-14T17:33:44.189Z,1.13
2022-08-14T17:39:06.950Z,1.00
2022-08-14T17:44:33.308Z,1.02
2022-08-14T17:49:52.124Z,1.30
2022-08-14T17:55:00.633Z,1.80
2022-08-14T18:00:05.843Z,1.27
2022-08-14T18:05:09.900Z,1.35
2022-08-14T18:10:51.988Z,1.63
2022-08-14T18:15:37.243Z,2.15
2022-08-14T18:21:40.565Z,1.60
2022-08-14T18:26:07.746Z,2.50
2022-08-14T18:31:42.296Z,2.80
2022-08-14T18:37:03.719Z,3.60
2022-08-14T18:42:23.539Z,3.22
2022-08-14T18:47:26.377Z,3.67
2022-08-14T18:52:34.599Z,3.00
2022-08-14T18:57:54.853Z,3.03
2022-08-14T19:03:01.805Z,2.60
2022-08-14T19:08:18.627Z,2.47
2022-08-14T19:13:48.021Z,1.80
2022-08-14T19:18:53.326Z,1.50
2022-08-14T19:24:04.342Z,1.77
2022-08-14T19:29:35.965Z,1.63
2022-08-14T19:34:48.044Z,1.52
2022-08-14T19:39:56.617Z,1.50
2022-08-14T19:44:58.464Z,2.13
2022-08-14T19:50:30.413Z,1.38
2022-08-14T19:55:34.189Z,1.60
2022-08-14T20:00:52.047Z,1.65
2022-08-14T20:06:05.544Z,1.52
2022-08-14T20:12:02.063Z,1.70
2022-08-14T20:17:05.511Z,1.92
2022-08-14T20:22:37.580Z,1.92
2022-08-14T20:27:34.952Z,2.10
2022-08-14T20:32:50.207Z,1.98
2022-08-14T20:38:29.792Z,2.05
2022-08-14T20:43:56.317Z,2.13
2022-08-14T20:49:06.001Z,2.05
2022-08-14T20:54:34.138Z,1.35
2022-08-14T20:59:53.123Z,1.63
2022-08-14T21:05:16.157Z,1.70
2022-08-14T21:10:35.712Z,1.90
2022-08-14T21:15:57.358Z,1.63
2022-08-14T21:21:07.937Z,1.67
2022-08-14T21:26:12.946Z,1.80
2022-08-14T21:31:15.240Z,1.93
2022-08-14T21:36:25.351Z,1.52
2022-08-14T21:41:41.290Z,1.65
2022-08-14T21:46:53.504Z,1.77
2022-08-14T21:52:49.575Z,1.30
2022-08-14T21:57:53.562Z,1.75
2022-08-14T22:02:52.798Z,1.30
2022-08-14T22:07:57.801Z,1.40
2022-08-14T22:13:01.378Z,1.85
2022-08-14T22:18:04.819Z,1.67
2022-08-14T22:23:09.654Z,1.67
2022-08-14T22:28:18.001Z,1.73
2022-08-14T22:33:20.678Z,1.60
2022-08-14T22:38:36.991Z,1.95
2022-08-14T22:43:41.178Z,1.80
2022-08-14T22:48:47.169Z,1.80
2022-08-14T22:53:52.582Z,1.77
2022-08-14T22:58:57.703Z,1.88
2022-08-14T23:04:00.187Z,1.90
2022-08-14T23:09:35.854Z,2.00
2022-08-14T23:14:30.688Z,2.35
2022-08-14T23:19:42.271Z,2.17
2022-08-14T23:24:44.681Z,2.08
2022-08-14T23:29:50.587Z,1.50
2022-08-14T23:34:55.974Z,1.67
2022-08-14T23:39:59.988Z,1.50
2022-08-14T23:45:02.073Z,1.77
2022-08-14T23:50:07.625Z,1.90
2022-08-14T23:55:11.084Z,1.45
